sensor_id;sensor_type;location;lat;lon;timestamp;pressure;altitude;pressure_sealevel;temperature;humidity
40850;BME280;26571;41.610;25.380;2022-09-21T00:00:37;98389.22;;;15.10;60.07
40850;BME280;26571;41.610;25.380;2022-09-21T00:03:03;98387.75;;;15.00;60.24
40850;BME280;26571;41.610;25.380;2022-09-21T00:05:29;98390.81;;;14.97;60.50
40850;BME280;26571;41.610;25.380;2022-09-21T00:07:54;98387.28;;;14.90;60.78
40850;BME280;26571;41.610;25.380;2022-09-21T00:10:20;98385.97;;;14.73;61.22
40850;BME280;26571;41.610;25.380;2022-09-21T00:12:46;98393.00;;;14.87;61.21
40850;BME280;26571;41.610;25.380;2022-09-21T00:15:13;98382.78;;;14.84;61.65
40850;BME280;26571;41.610;25.380;2022-09-21T00:17:39;98386.03;;;14.86;61.11
40850;BME280;26571;41.610;25.380;2022-09-21T00:20:05;98378.72;;;14.88;61.10
40850;BME280;26571;41.610;25.380;2022-09-21T00:22:32;98336.94;;;14.56;61.40
40850;BME280;26571;41.610;25.380;2022-09-21T00:24:58;98377.84;;;14.81;60.95
40850;BME280;26571;41.610;25.380;2022-09-21T00:27:25;98348.78;;;14.60;60.82
40850;BME280;26571;41.610;25.380;2022-09-21T00:29:55;98391.75;;;14.83;60.62
40850;BME280;26571;41.610;25.380;2022-09-21T00:32:20;98401.47;;;14.76;60.88
40850;BME280;26571;41.610;25.380;2022-09-21T00:34:46;98375.72;;;14.63;60.93
40850;BME280;26571;41.610;25.380;2022-09-21T00:37:11;98393.34;;;14.78;61.03
40850;BME280;26571;41.610;25.380;2022-09-21T00:39:37;98363.41;;;14.56;61.07
40850;BME280;26571;41.610;25.380;2022-09-21T00:42:08;98399.59;;;14.70;61.10
40850;BME280;26571;41.610;25.380;2022-09-21T00:44:35;98401.44;;;14.69;61.18
40850;BME280;26571;41.610;25.380;2022-09-21T00:47:05;98394.25;;;14.63;61.55
40850;BME280;26571;41.610;25.380;2022-09-21T00:49:33;98392.41;;;14.64;61.40
40850;BME280;26571;41.610;25.380;2022-09-21T00:52:00;98360.66;;;14.42;61.85
40850;BME280;26571;41.610;25.380;2022-09-21T00:54:37;98393.69;;;14.68;61.15
40850;BME280;26571;41.610;25.380;2022-09-21T00:57:06;98398.19;;;14.74;60.73
40850;BME280;26571;41.610;25.380;2022-09-21T00:59:35;98395.78;;;14.79;60.79
40850;BME280;26571;41.610;25.380;2022-09-21T01:02:03;98404.34;;;14.81;60.75
40850;BME280;26571;41.610;25.380;2022-09-21T01:04:29;98403.59;;;14.87;60.64
40850;BME280;26571;41.610;25.380;2022-09-21T01:06:57;98394.63;;;14.88;60.82
40850;BME280;26571;41.610;25.380;2022-09-21T01:09:24;98395.25;;;14.90;60.70
40850;BME280;26571;41.610;25.380;2022-09-21T01:11:58;98388.50;;;14.88;60.96
40850;BME280;26571;41.610;25.380;2022-09-21T01:20:25;98386.44;;;14.83;61.41
40850;BME280;26571;41.610;25.380;2022-09-21T01:26:01;98367.78;;;14.70;61.70
40850;BME280;26571;41.610;25.380;2022-09-21T01:36:57;98370.78;;;14.60;62.11
40850;BME280;26571;41.610;25.380;2022-09-21T01:39:26;98367.09;;;14.55;61.64
40850;BME280;26571;41.610;25.380;2022-09-21T01:41:54;98360.94;;;14.47;61.37
40850;BME280;26571;41.610;25.380;2022-09-21T01:44:27;98360.03;;;14.40;62.15
40850;BME280;26571;41.610;25.380;2022-09-21T01:46:55;98361.03;;;14.39;62.23
40850;BME280;26571;41.610;25.380;2022-09-21T01:49:30;98360.25;;;14.45;62.18
40850;BME280;26571;41.610;25.380;2022-09-21T01:52:58;98358.00;;;14.42;61.99
40850;BME280;26571;41.610;25.380;2022-09-21T01:55:25;98358.19;;;14.41;62.59
40850;BME280;26571;41.610;25.380;2022-09-21T01:57:59;98356.34;;;14.41;62.21
40850;BME280;26571;41.610;25.380;2022-09-21T02:00:27;98247.94;;;13.77;62.54
40850;BME280;26571;41.610;25.380;2022-09-21T02:03:15;98315.81;;;14.13;62.87
40850;BME280;26571;41.610;25.380;2022-09-21T02:05:44;98359.44;;;14.45;62.73
40850;BME280;26571;41.610;25.380;2022-09-21T02:08:10;98362.06;;;14.38;62.42
40850;BME280;26571;41.610;25.380;2022-09-21T02:10:47;98363.31;;;14.42;62.50
40850;BME280;26571;41.610;25.380;2022-09-21T02:13:14;98359.19;;;14.40;62.25
40850;BME280;26571;41.610;25.380;2022-09-21T02:20:58;98352.25;;;14.32;62.27
40850;BME280;26571;41.610;25.380;2022-09-21T02:23:44;98315.44;;;14.16;61.37
40850;BME280;26571;41.610;25.380;2022-09-21T02:26:17;98359.94;;;14.27;60.99
40850;BME280;26571;41.610;25.380;2022-09-21T02:29:41;98359.03;;;14.20;61.53
40850;BME280;26571;41.610;25.380;2022-09-21T02:32:06;98357.00;;;14.22;62.24
40850;BME280;26571;41.610;25.380;2022-09-21T02:34:43;98348.25;;;14.21;62.08
40850;BME280;26571;41.610;25.380;2022-09-21T02:37:13;98362.31;;;14.22;60.86
40850;BME280;26571;41.610;25.380;2022-09-21T02:42:39;98349.16;;;14.29;61.56
40850;BME280;26571;41.610;25.380;2022-09-21T02:45:13;98349.34;;;14.27;61.42
40850;BME280;26571;41.610;25.380;2022-09-21T02:48:34;98348.50;;;14.27;61.81
40850;BME280;26571;41.610;25.380;2022-09-21T02:50:54;98348.56;;;14.33;62.11
40850;BME280;26571;41.610;25.380;2022-09-21T02:53:28;98357.13;;;14.35;62.43
40850;BME280;26571;41.610;25.380;2022-09-21T02:55:57;98354.22;;;14.30;62.65
40850;BME280;26571;41.610;25.380;2022-09-21T02:58:26;98364.50;;;14.40;63.35
40850;BME280;26571;41.610;25.380;2022-09-21T03:00:55;98365.31;;;14.40;63.66
40850;BME280;26571;41.610;25.380;2022-09-21T03:03:22;98352.31;;;14.45;63.45
40850;BME280;26571;41.610;25.380;2022-09-21T03:05:51;98349.06;;;14.43;63.70
40850;BME280;26571;41.610;25.380;2022-09-21T03:08:17;98351.69;;;14.43;63.38
40850;BME280;26571;41.610;25.380;2022-09-21T03:10:43;98320.78;;;14.22;63.08
40850;BME280;26571;41.610;25.380;2022-09-21T03:13:09;98357.00;;;14.43;63.15
40850;BME280;26571;41.610;25.380;2022-09-21T03:15:36;98335.25;;;14.27;62.75
40850;BME280;26571;41.610;25.380;2022-09-21T03:18:03;98327.75;;;14.30;62.78
40850;BME280;26571;41.610;25.380;2022-09-21T03:20:31;98367.47;;;14.52;62.56
40850;BME280;26571;41.610;25.380;2022-09-21T03:22:57;98368.72;;;14.56;62.42
40850;BME280;26571;41.610;25.380;2022-09-21T03:25:23;98360.59;;;14.57;62.38
40850;BME280;26571;41.610;25.380;2022-09-21T03:27:48;98376.81;;;14.47;62.16
40850;BME280;26571;41.610;25.380;2022-09-21T03:30:18;98363.00;;;14.52;61.93
40850;BME280;26571;41.610;25.380;2022-09-21T03:32:45;98361.78;;;14.55;61.91
40850;BME280;26571;41.610;25.380;2022-09-21T03:35:10;98354.44;;;14.57;62.00
40850;BME280;26571;41.610;25.380;2022-09-21T03:37:35;98351.81;;;14.57;61.83
40850;BME280;26571;41.610;25.380;2022-09-21T03:40:01;98349.16;;;14.57;61.94
40850;BME280;26571;41.610;25.380;2022-09-21T03:42:26;98356.84;;;14.52;62.13
40850;BME280;26571;41.610;25.380;2022-09-21T03:44:52;98356.50;;;14.55;61.97
40850;BME280;26571;41.610;25.380;2022-09-21T03:47:17;98352.81;;;14.56;61.84
40850;BME280;26571;41.610;25.380;2022-09-21T03:49:42;98359.75;;;14.57;61.98
40850;BME280;26571;41.610;25.380;2022-09-21T03:52:08;98364.22;;;14.56;61.78
40850;BME280;26571;41.610;25.380;2022-09-21T03:54:33;98366.06;;;14.56;61.25
40850;BME280;26571;41.610;25.380;2022-09-21T03:56:59;98367.69;;;14.57;61.25
40850;BME280;26571;41.610;25.380;2022-09-21T03:59:24;98369.34;;;14.58;61.32
40850;BME280;26571;41.610;25.380;2022-09-21T04:01:49;98374.00;;;14.56;61.10
40850;BME280;26571;41.610;25.380;2022-09-21T04:04:15;98369.34;;;14.58;61.32
40850;BME280;26571;41.610;25.380;2022-09-21T04:06:41;98369.72;;;14.55;61.47
40850;BME280;26571;41.610;25.380;2022-09-21T04:09:07;98374.22;;;14.54;61.65
40850;BME280;26571;41.610;25.380;2022-09-21T04:11:32;98364.31;;;14.63;61.33
40850;BME280;26571;41.610;25.380;2022-09-21T04:13:58;98362.47;;;14.63;61.27
40850;BME280;26571;41.610;25.380;2022-09-21T04:16:24;98370.22;;;14.65;61.38
40850;BME280;26571;41.610;25.380;2022-09-21T04:18:50;98367.13;;;14.61;61.18
40850;BME280;26571;41.610;25.380;2022-09-21T04:21:19;98379.78;;;14.66;61.38
40850;BME280;26571;41.610;25.380;2022-09-21T04:23:45;98375.53;;;14.71;61.34
40850;BME280;26571;41.610;25.380;2022-09-21T04:26:26;98380.81;;;14.65;61.99
40850;BME280;26571;41.610;25.380;2022-09-21T04:28:53;98364.53;;;14.46;61.40
40850;BME280;26571;41.610;25.380;2022-09-21T04:31:20;98395.69;;;14.66;61.70
40850;BME280;26571;41.610;25.380;2022-09-21T04:33:49;98395.69;;;14.66;61.48
40850;BME280;26571;41.610;25.380;2022-09-21T04:36:16;98401.38;;;14.63;61.17
40850;BME280;26571;41.610;25.380;2022-09-21T04:38:42;98412.34;;;14.60;61.17
40850;BME280;26571;41.610;25.380;2022-09-21T04:41:07;98397.25;;;14.54;61.59
40850;BME280;26571;41.610;25.380;2022-09-21T04:43:33;98391.03;;;14.46;61.85
40850;BME280;26571;41.610;25.380;2022-09-21T04:46:04;98387.53;;;14.39;61.67
40850;BME280;26571;41.610;25.380;2022-09-21T04:48:29;98387.72;;;14.38;62.26
40850;BME280;26571;41.610;25.380;2022-09-21T04:50:54;98385.69;;;14.40;62.23
40850;BME280;26571;41.610;25.380;2022-09-21T04:53:20;98391.78;;;14.40;62.13
40850;BME280;26571;41.610;25.380;2022-09-21T04:55:45;98390.63;;;14.43;62.05
40850;BME280;26571;41.610;25.380;2022-09-21T04:58:11;98395.72;;;14.44;61.72
40850;BME280;26571;41.610;25.380;2022-09-21T05:00:36;98393.94;;;14.52;61.75
40850;BME280;26571;41.610;25.380;2022-09-21T05:03:02;98398.25;;;14.53;62.17
40850;BME280;26571;41.610;25.380;2022-09-21T05:05:27;98397.69;;;14.57;61.72
40850;BME280;26571;41.610;25.380;2022-09-21T05:07:52;98385.59;;;14.48;61.94
40850;BME280;26571;41.610;25.380;2022-09-21T05:10:18;98389.91;;;14.56;61.78
40850;BME280;26571;41.610;25.380;2022-09-21T05:12:43;98397.47;;;14.59;62.56
40850;BME280;26571;41.610;25.380;2022-09-21T05:15:09;98396.84;;;14.57;62.15
40850;BME280;26571;41.610;25.380;2022-09-21T05:17:39;98352.00;;;14.27;62.33
40850;BME280;26571;41.610;25.380;2022-09-21T05:20:05;98394.69;;;14.45;63.39
40850;BME280;26571;41.610;25.380;2022-09-21T05:22:31;98396.28;;;14.40;64.10
40850;BME280;26571;41.610;25.380;2022-09-21T05:24:56;98394.44;;;14.40;63.11
40850;BME280;26571;41.610;25.380;2022-09-21T05:27:22;98387.41;;;14.47;62.93
40850;BME280;26571;41.610;25.380;2022-09-21T05:29:47;98388.66;;;14.52;62.11
40850;BME280;26571;41.610;25.380;2022-09-21T05:32:44;98389.91;;;14.56;62.50
40850;BME280;26571;41.610;25.380;2022-09-21T05:40:27;98389.41;;;14.67;61.75
40850;BME280;26571;41.610;25.380;2022-09-21T05:42:52;98385.16;;;14.72;61.35
40850;BME280;26571;41.610;25.380;2022-09-21T05:45:18;98389.22;;;14.75;61.21
40850;BME280;26571;41.610;25.380;2022-09-21T05:50:35;98382.75;;;14.78;61.15
40850;BME280;26571;41.610;25.380;2022-09-21T05:55:59;98406.75;;;14.76;61.61
40850;BME280;26571;41.610;25.380;2022-09-21T06:01:34;98373.13;;;14.77;62.73
40850;BME280;26571;41.610;25.380;2022-09-21T06:04:03;98381.94;;;14.84;62.71
40850;BME280;26571;41.610;25.380;2022-09-21T06:06:28;98379.91;;;14.86;63.66
40850;BME280;26571;41.610;25.380;2022-09-21T06:08:53;98382.53;;;14.79;63.59
40850;BME280;26571;41.610;25.380;2022-09-21T06:11:20;98379.88;;;14.79;63.38
40850;BME280;26571;41.610;25.380;2022-09-21T06:13:45;98381.94;;;14.84;62.51
40850;BME280;26571;41.610;25.380;2022-09-21T06:16:11;98339.88;;;14.67;62.45
40850;BME280;26571;41.610;25.380;2022-09-21T06:18:37;98377.09;;;14.87;61.72
40850;BME280;26571;41.610;25.380;2022-09-21T06:21:04;98383.22;;;14.88;61.84
40850;BME280;26571;41.610;25.380;2022-09-21T06:23:29;98377.09;;;14.87;61.91
40850;BME280;26571;41.610;25.380;2022-09-21T06:25:55;98371.00;;;14.93;60.81
40850;BME280;26571;41.610;25.380;2022-09-21T06:28:20;98338.22;;;14.66;60.78
40850;BME280;26571;41.610;25.380;2022-09-21T06:30:53;98390.56;;;14.92;60.79
40850;BME280;26571;41.610;25.380;2022-09-21T06:33:19;98388.16;;;14.97;60.26
40850;BME280;26571;41.610;25.380;2022-09-21T06:35:54;98401.66;;;15.03;60.24
40850;BME280;26571;41.610;25.380;2022-09-21T06:38:20;98391.06;;;15.09;59.20
40850;BME280;26571;41.610;25.380;2022-09-21T06:40:46;98398.06;;;15.17;59.66
40850;BME280;26571;41.610;25.380;2022-09-21T06:43:11;98393.59;;;15.24;59.22
40850;BME280;26571;41.610;25.380;2022-09-21T06:45:38;98401.38;;;15.32;59.30
40850;BME280;26571;41.610;25.380;2022-09-21T06:48:03;98394.06;;;15.41;59.61
40850;BME280;26571;41.610;25.380;2022-09-21T06:50:29;98390.81;;;15.45;59.25
40850;BME280;26571;41.610;25.380;2022-09-21T06:52:54;98396.19;;;15.59;58.83
40850;BME280;26571;41.610;25.380;2022-09-21T06:55:19;98386.03;;;15.69;58.75
40850;BME280;26571;41.610;25.380;2022-09-21T06:57:45;98382.78;;;15.73;57.44
40850;BME280;26571;41.610;25.380;2022-09-21T07:00:11;98383.22;;;15.77;57.64
40850;BME280;26571;41.610;25.380;2022-09-21T07:02:37;98363.56;;;15.65;57.27
40850;BME280;26571;41.610;25.380;2022-09-21T07:08:15;98396.31;;;15.98;56.63
40850;BME280;26571;41.610;25.380;2022-09-21T07:10:40;98397.13;;;16.06;56.58
40850;BME280;26571;41.610;25.380;2022-09-21T07:13:06;98390.81;;;16.20;56.15
40850;BME280;26571;41.610;25.380;2022-09-21T07:15:33;98392.25;;;16.29;55.73
40850;BME280;26571;41.610;25.380;2022-09-21T07:17:59;98387.56;;;16.44;56.75
40850;BME280;26571;41.610;25.380;2022-09-21T07:20:24;98393.09;;;16.56;56.38
40850;BME280;26571;41.610;25.380;2022-09-21T07:22:50;98389.81;;;16.74;56.29
40850;BME280;26571;41.610;25.380;2022-09-21T07:25:15;98389.97;;;16.86;54.70
40850;BME280;26571;41.610;25.380;2022-09-21T07:27:41;98386.09;;;16.95;53.95
40850;BME280;26571;41.610;25.380;2022-09-21T07:30:07;98383.19;;;17.10;51.12
40850;BME280;26571;41.610;25.380;2022-09-21T07:32:33;98374.19;;;17.11;49.85
40850;BME280;26571;41.610;25.380;2022-09-21T07:34:59;98385.22;;;17.21;50.27
40850;BME280;26571;41.610;25.380;2022-09-21T07:37:25;98381.09;;;17.25;50.74
40850;BME280;26571;41.610;25.380;2022-09-21T07:39:51;98383.53;;;17.33;48.90
40850;BME280;26571;41.610;25.380;2022-09-21T07:42:17;98391.69;;;17.38;49.01
40850;BME280;26571;41.610;25.380;2022-09-21T07:44:45;98386.53;;;17.43;48.98
40850;BME280;26571;41.610;25.380;2022-09-21T07:47:10;98396.53;;;17.54;48.49
40850;BME280;26571;41.610;25.380;2022-09-21T07:49:37;98308.25;;;17.19;49.75
40850;BME280;26571;41.610;25.380;2022-09-21T07:52:02;98406.22;;;17.87;48.01
40850;BME280;26571;41.610;25.380;2022-09-21T07:54:28;98392.41;;;18.03;44.48
40850;BME280;26571;41.610;25.380;2022-09-21T07:56:53;98397.25;;;18.13;46.01
40850;BME280;26571;41.610;25.380;2022-09-21T07:59:37;98404.94;;;18.28;45.81
40850;BME280;26571;41.610;25.380;2022-09-21T08:02:03;98401.41;;;18.34;43.26
40850;BME280;26571;41.610;25.380;2022-09-21T08:04:28;98399.34;;;18.36;42.49
40850;BME280;26571;41.610;25.380;2022-09-21T08:06:54;98397.09;;;18.33;42.84
40850;BME280;26571;41.610;25.380;2022-09-21T08:09:19;98392.03;;;18.25;43.73
40850;BME280;26571;41.610;25.380;2022-09-21T08:11:45;98379.38;;;18.20;43.82
40850;BME280;26571;41.610;25.380;2022-09-21T08:14:11;98339.75;;;17.99;42.15
40850;BME280;26571;41.610;25.380;2022-09-21T08:16:44;98390.25;;;18.19;43.04
40850;BME280;26571;41.610;25.380;2022-09-21T08:19:10;98390.84;;;18.21;42.62
40850;BME280;26571;41.610;25.380;2022-09-21T08:21:35;98383.88;;;18.20;42.92
40850;BME280;26571;41.610;25.380;2022-09-21T08:24:00;98390.38;;;18.30;42.71
40850;BME280;26571;41.610;25.380;2022-09-21T08:26:26;98384.66;;;18.27;42.52
40850;BME280;26571;41.610;25.380;2022-09-21T08:28:52;98386.91;;;18.30;43.84
40850;BME280;26571;41.610;25.380;2022-09-21T08:31:20;98383.03;;;18.26;44.32
40850;BME280;26571;41.610;25.380;2022-09-21T08:33:46;98382.75;;;18.34;42.37
40850;BME280;26571;41.610;25.380;2022-09-21T08:36:12;98374.00;;;18.27;42.84
40850;BME280;26571;41.610;25.380;2022-09-21T08:38:38;98371.72;;;18.30;42.58
40850;BME280;26571;41.610;25.380;2022-09-21T08:44:11;98364.38;;;18.26;42.68
40850;BME280;26571;41.610;25.380;2022-09-21T08:46:40;98366.22;;;18.25;43.16
40850;BME280;26571;41.610;25.380;2022-09-21T08:49:15;98362.47;;;18.33;41.86
40850;BME280;26571;41.610;25.380;2022-09-21T08:52:03;98347.34;;;18.27;42.20
40850;BME280;26571;41.610;25.380;2022-09-21T08:57:17;98351.97;;;18.38;40.08
40850;BME280;26571;41.610;25.380;2022-09-21T08:59:45;98345.25;;;18.29;39.62
40850;BME280;26571;41.610;25.380;2022-09-21T09:10:46;98328.13;;;18.68;39.20
40850;BME280;26571;41.610;25.380;2022-09-21T09:21:33;98323.00;;;19.22;39.01
40850;BME280;26571;41.610;25.380;2022-09-21T09:24:10;98321.19;;;19.34;38.09
40850;BME280;26571;41.610;25.380;2022-09-21T09:26:43;98315.50;;;19.30;36.80
40850;BME280;26571;41.610;25.380;2022-09-21T09:29:21;98321.03;;;19.47;37.34
40850;BME280;26571;41.610;25.380;2022-09-21T09:31:51;98315.25;;;19.50;37.04
40850;BME280;26571;41.610;25.380;2022-09-21T09:34:56;98310.50;;;19.52;37.56
40850;BME280;26571;41.610;25.380;2022-09-21T09:37:15;98313.75;;;19.54;37.03
40850;BME280;26571;41.610;25.380;2022-09-21T09:39:42;98300.63;;;19.53;36.63
40850;BME280;26571;41.610;25.380;2022-09-21T09:45:42;98306.09;;;19.28;35.34
40850;BME280;26571;41.610;25.380;2022-09-21T09:50:54;98311.53;;;19.21;35.97
40850;BME280;26571;41.610;25.380;2022-09-21T09:53:21;98305.56;;;19.19;35.18
40850;BME280;26571;41.610;25.380;2022-09-21T09:55:53;98309.91;;;19.20;35.77
40850;BME280;26571;41.610;25.380;2022-09-21T09:58:34;98317.22;;;19.25;36.56
40850;BME280;26571;41.610;25.380;2022-09-21T10:01:00;98317.38;;;19.30;36.65
40850;BME280;26571;41.610;25.380;2022-09-21T10:03:26;98306.19;;;19.21;36.97
40850;BME280;26571;41.610;25.380;2022-09-21T10:05:53;98311.97;;;19.18;36.69
40850;BME280;26571;41.610;25.380;2022-09-21T10:11:01;98286.56;;;18.79;36.97
40850;BME280;26571;41.610;25.380;2022-09-21T10:16:18;98298.72;;;18.93;37.38
40850;BME280;26571;41.610;25.380;2022-09-21T10:18:54;98309.34;;;19.00;37.80
40850;BME280;26571;41.610;25.380;2022-09-21T10:21:21;98311.31;;;19.04;37.99
40850;BME280;26571;41.610;25.380;2022-09-21T10:23:59;98310.28;;;19.05;37.25
40850;BME280;26571;41.610;25.380;2022-09-21T10:26:41;98302.41;;;19.10;37.40
40850;BME280;26571;41.610;25.380;2022-09-21T10:32:04;98273.47;;;18.77;36.92
40850;BME280;26571;41.610;25.380;2022-09-21T10:34:33;98300.94;;;18.96;36.49
40850;BME280;26571;41.610;25.380;2022-09-21T10:37:01;98294.47;;;19.04;37.03
40850;BME280;26571;41.610;25.380;2022-09-21T10:44:34;98299.09;;;19.15;35.69
40850;BME280;26571;41.610;25.380;2022-09-21T10:47:14;98278.69;;;19.02;35.26
40850;BME280;26571;41.610;25.380;2022-09-21T10:49:52;98289.94;;;19.23;33.68
40850;BME280;26571;41.610;25.380;2022-09-21T10:52:29;98289.00;;;19.17;33.45
40850;BME280;26571;41.610;25.380;2022-09-21T10:54:56;98268.94;;;18.96;34.06
40850;BME280;26571;41.610;25.380;2022-09-21T10:57:23;98283.28;;;19.14;34.32
40850;BME280;26571;41.610;25.380;2022-09-21T10:59:50;98289.81;;;19.18;34.53
40850;BME280;26571;41.610;25.380;2022-09-21T11:02:41;98281.94;;;19.23;35.14
40850;BME280;26571;41.610;25.380;2022-09-21T11:05:13;98270.81;;;19.26;34.65
40850;BME280;26571;41.610;25.380;2022-09-21T11:07:50;98275.47;;;19.30;33.44
40850;BME280;26571;41.610;25.380;2022-09-21T11:15:54;98272.81;;;19.30;34.40
40850;BME280;26571;41.610;25.380;2022-09-21T11:18:25;98274.81;;;19.35;35.39
40850;BME280;26571;41.610;25.380;2022-09-21T11:21:05;98272.13;;;19.35;34.72
40850;BME280;26571;41.610;25.380;2022-09-21T11:24:01;98265.75;;;19.36;34.67
40850;BME280;26571;41.610;25.380;2022-09-21T11:26:39;98257.06;;;19.41;34.06
40850;BME280;26571;41.610;25.380;2022-09-21T11:37:25;98254.78;;;19.56;33.71
40850;BME280;26571;41.610;25.380;2022-09-21T11:42:51;98253.38;;;19.53;33.62
40850;BME280;26571;41.610;25.380;2022-09-21T11:54:49;98234.63;;;19.72;33.20
40850;BME280;26571;41.610;25.380;2022-09-21T11:59:28;98227.91;;;19.69;33.47
40850;BME280;26571;41.610;25.380;2022-09-21T12:04:59;98240.59;;;19.97;34.09
40850;BME280;26571;41.610;25.380;2022-09-21T12:18:42;98202.47;;;19.67;32.77
40850;BME280;26571;41.610;25.380;2022-09-21T12:21:53;98184.88;;;19.47;33.02
40850;BME280;26571;41.610;25.380;2022-09-21T12:24:29;98179.84;;;19.39;32.36
40850;BME280;26571;41.610;25.380;2022-09-21T12:27:00;98216.59;;;19.55;32.51
40850;BME280;26571;41.610;25.380;2022-09-21T12:30:06;98212.63;;;19.58;33.30
40850;BME280;26571;41.610;25.380;2022-09-21T12:35:15;98203.88;;;19.81;33.32
40850;BME280;26571;41.610;25.380;2022-09-21T12:38:09;98204.34;;;19.90;33.34
40850;BME280;26571;41.610;25.380;2022-09-21T12:40:43;98201.56;;;19.96;32.10
40850;BME280;26571;41.610;25.380;2022-09-21T12:43:31;98194.81;;;20.05;32.26
40850;BME280;26571;41.610;25.380;2022-09-21T12:48:40;98191.56;;;20.03;30.97
40850;BME280;26571;41.610;25.380;2022-09-21T12:53:52;98183.19;;;20.11;32.32
40850;BME280;26571;41.610;25.380;2022-09-21T13:01:53;98184.50;;;20.09;32.99
40850;BME280;26571;41.610;25.380;2022-09-21T13:10:18;98179.91;;;20.33;32.67
40850;BME280;26571;41.610;25.380;2022-09-21T13:12:50;98184.56;;;20.37;33.08
40850;BME280;26571;41.610;25.380;2022-09-21T13:15:25;98184.66;;;20.43;33.03
40850;BME280;26571;41.610;25.380;2022-09-21T13:20:49;98171.06;;;20.44;31.03
40850;BME280;26571;41.610;25.380;2022-09-21T13:23:36;98168.84;;;20.41;30.31
40850;BME280;26571;41.610;25.380;2022-09-21T13:26:08;98138.44;;;20.19;31.01
40850;BME280;26571;41.610;25.380;2022-09-21T13:39:56;98172.06;;;20.14;31.68
40850;BME280;26571;41.610;25.380;2022-09-21T13:42:48;98180.19;;;19.96;32.35
40850;BME280;26571;41.610;25.380;2022-09-21T13:47:48;98186.19;;;19.68;33.32
40850;BME280;26571;41.610;25.380;2022-09-21T13:50:23;98184.88;;;19.59;33.33
40850;BME280;26571;41.610;25.380;2022-09-21T13:52:53;98187.66;;;19.52;33.60
40850;BME280;26571;41.610;25.380;2022-09-21T13:57:47;98197.16;;;19.36;34.35
40850;BME280;26571;41.610;25.380;2022-09-21T14:02:51;98187.47;;;19.24;33.88
40850;BME280;26571;41.610;25.380;2022-09-21T14:05:33;98192.56;;;19.14;34.21
40850;BME280;26571;41.610;25.380;2022-09-21T14:08:06;98207.09;;;18.99;34.50
40850;BME280;26571;41.610;25.380;2022-09-21T14:13:28;98209.47;;;18.77;34.67
40850;BME280;26571;41.610;25.380;2022-09-21T14:19:02;98193.22;;;18.24;32.63
40850;BME280;26571;41.610;25.380;2022-09-21T14:21:28;98207.72;;;18.09;33.50
40850;BME280;26571;41.610;25.380;2022-09-21T14:26:44;98207.72;;;18.09;33.08
40850;BME280;26571;41.610;25.380;2022-09-21T14:29:21;98221.69;;;18.05;36.37
40850;BME280;26571;41.610;25.380;2022-09-21T14:31:53;98226.03;;;17.81;38.09
40850;BME280;26571;41.610;25.380;2022-09-21T14:34:23;98229.53;;;17.75;39.11
40850;BME280;26571;41.610;25.380;2022-09-21T14:36:53;98229.22;;;17.58;41.28
40850;BME280;26571;41.610;25.380;2022-09-21T14:39:27;98221.69;;;17.23;43.20
40850;BME280;26571;41.610;25.380;2022-09-21T14:41:57;98246.72;;;17.09;45.18
40850;BME280;26571;41.610;25.380;2022-09-21T14:44:28;98250.31;;;16.83;45.59
40850;BME280;26571;41.610;25.380;2022-09-21T14:58:04;98258.84;;;16.14;51.53
40850;BME280;26571;41.610;25.380;2022-09-21T15:12:26;98277.22;;;16.09;52.71
40850;BME280;26571;41.610;25.380;2022-09-21T15:17:28;98258.66;;;16.02;53.89
40850;BME280;26571;41.610;25.380;2022-09-21T15:19:57;98267.22;;;16.17;55.10
40850;BME280;26571;41.610;25.380;2022-09-21T15:22:25;98282.50;;;16.35;55.52
40850;BME280;26571;41.610;25.380;2022-09-21T15:24:57;98278.19;;;16.41;57.64
40850;BME280;26571;41.610;25.380;2022-09-21T15:27:26;98287.63;;;16.43;57.50
40850;BME280;26571;41.610;25.380;2022-09-21T15:29:58;98294.56;;;16.38;56.86
40850;BME280;26571;41.610;25.380;2022-09-21T15:32:39;98307.66;;;16.39;57.40
40850;BME280;26571;41.610;25.380;2022-09-21T15:37:39;98223.13;;;15.70;57.28
40850;BME280;26571;41.610;25.380;2022-09-21T15:40:14;98322.34;;;16.35;57.25
40850;BME280;26571;41.610;25.380;2022-09-21T15:45:26;98327.28;;;16.12;59.41
40850;BME280;26571;41.610;25.380;2022-09-21T15:47:52;98359.97;;;16.25;60.14
40850;BME280;26571;41.610;25.380;2022-09-21T15:50:18;98358.53;;;16.10;61.93
40850;BME280;26571;41.610;25.380;2022-09-21T15:52:57;98365.47;;;15.97;63.27
40850;BME280;26571;41.610;25.380;2022-09-21T15:55:24;98366.84;;;15.80;64.66
40850;BME280;26571;41.610;25.380;2022-09-21T15:57:52;98351.28;;;15.57;65.35
40850;BME280;26571;41.610;25.380;2022-09-21T16:05:30;98378.16;;;15.41;68.78
40850;BME280;26571;41.610;25.380;2022-09-21T16:10:41;98376.66;;;15.25;70.15
40850;BME280;26571;41.610;25.380;2022-09-21T16:13:14;98364.84;;;15.28;69.40
40850;BME280;26571;41.610;25.380;2022-09-21T16:16:09;98370.97;;;15.28;69.61
40850;BME280;26571;41.610;25.380;2022-09-21T16:18:48;98378.88;;;15.21;70.47
40850;BME280;26571;41.610;25.380;2022-09-21T16:21:30;98379.03;;;15.07;71.71
40850;BME280;26571;41.610;25.380;2022-09-21T16:24:15;98379.25;;;15.12;71.72
40850;BME280;26571;41.610;25.380;2022-09-21T16:26:54;98372.31;;;15.11;71.53
40850;BME280;26571;41.610;25.380;2022-09-21T16:29:23;98344.88;;;14.90;69.91
40850;BME280;26571;41.610;25.380;2022-09-21T16:31:49;98382.09;;;15.10;68.49
40850;BME280;26571;41.610;25.380;2022-09-21T16:36:48;98396.00;;;15.12;69.90
40850;BME280;26571;41.610;25.380;2022-09-21T16:39:15;98374.19;;;15.17;66.87
40850;BME280;26571;41.610;25.380;2022-09-21T16:41:47;98378.84;;;15.15;66.70
40850;BME280;26571;41.610;25.380;2022-09-21T16:44:22;98345.50;;;14.92;67.28